createdAt,value
2022-08-10T00:04:32.774Z,20.81
2022-08-10T00:10:36.703Z,20.80
2022-08-10T00:16:41.640Z,20.75
2022-08-10T00:22:48.924Z,20.68
2022-08-10T00:29:00.920Z,20.64
2022-08-10T00:35:06.937Z,20.60
2022-08-10T00:41:10.497Z,20.52
2022-08-10T00:47:35.470Z,20.52
2022-08-10T00:53:40.000Z,20.49
2022-08-10T00:59:58.727Z,20.45
2022-08-10T01:06:17.055Z,20.41
2022-08-10T01:12:40.884Z,20.41
2022-08-10T01:18:54.674Z,20.34
2022-08-10T01:26:11.576Z,20.43
2022-08-10T01:32:05.291Z,20.39
2022-08-10T01:38:15.753Z,20.33
2022-08-10T01:44:25.510Z,20.30
2022-08-10T01:50:33.785Z,20.31
2022-08-10T01:56:59.562Z,20.21
2022-08-10T02:03:05.948Z,20.10
2022-08-10T02:09:15.494Z,20.08
2022-08-10T02:15:21.966Z,20.20
2022-08-10T02:21:26.998Z,20.11
2022-08-10T02:27:34.090Z,19.98
2022-08-10T02:33:39.841Z,20.06
2022-08-10T02:40:01.858Z,19.98
2022-08-10T02:46:10.709Z,19.98
2022-08-10T02:52:20.828Z,19.88
2022-08-10T02:58:29.697Z,19.95
2022-08-10T03:04:55.830Z,19.91
2022-08-10T03:11:04.995Z,19.90
2022-08-10T03:17:10.662Z,19.89
2022-08-10T03:23:19.113Z,19.88
2022-08-10T03:29:24.349Z,19.85
2022-08-10T03:35:28.866Z,19.81
2022-08-10T03:41:37.902Z,19.83
2022-08-10T03:47:44.182Z,19.83
2022-08-10T03:54:04.402Z,19.91
2022-08-10T04:00:13.130Z,19.87
2022-08-10T04:06:16.734Z,19.84
2022-08-10T04:12:20.694Z,19.75
2022-08-10T04:18:25.628Z,19.87
2022-08-10T04:24:33.583Z,19.95
2022-08-10T04:30:38.055Z,19.92
2022-08-10T04:36:44.087Z,20.26
2022-08-10T04:42:48.529Z,20.16
2022-08-10T04:48:59.768Z,20.06
2022-08-10T04:55:07.857Z,20.32
2022-08-10T05:01:11.517Z,20.32
2022-08-10T05:07:18.590Z,20.22
2022-08-10T05:13:23.705Z,20.24
2022-08-10T05:20:04.007Z,20.29
2022-08-10T05:25:50.893Z,20.38
2022-08-10T05:31:56.243Z,20.42
2022-08-10T05:38:12.165Z,20.59
2022-08-10T05:44:17.854Z,20.55
2022-08-10T05:50:25.362Z,20.80
2022-08-10T05:56:53.850Z,20.85
2022-08-10T06:02:57.158Z,20.95
2022-08-10T06:09:02.233Z,21.09
2022-08-10T06:15:10.210Z,21.17
2022-08-10T06:21:15.908Z,21.21
2022-08-10T06:27:20.826Z,21.20
2022-08-10T06:39:44.613Z,21.40
2022-08-10T06:46:07.543Z,21.36
2022-08-10T06:52:18.268Z,21.39
2022-08-10T06:58:26.897Z,21.47
2022-08-10T07:04:35.562Z,21.49
2022-08-10T07:10:41.376Z,21.59
2022-08-10T07:16:51.995Z,21.66
2022-08-10T07:23:01.505Z,21.64
2022-08-10T07:29:54.003Z,21.74
2022-08-10T07:35:52.056Z,21.82
2022-08-10T07:41:58.622Z,21.91
2022-08-10T07:48:07.990Z,21.88
2022-08-10T07:54:15.916Z,21.94
2022-08-10T08:00:22.584Z,21.98
2022-08-10T08:06:27.213Z,22.04
2022-08-10T08:12:36.916Z,22.08
2022-08-10T08:18:58.204Z,22.07
2022-08-10T08:25:12.916Z,22.12
2022-08-10T08:31:20.085Z,22.11
2022-08-10T08:38:31.941Z,22.14
2022-08-10T08:44:04.648Z,22.19
2022-08-10T08:50:17.467Z,22.16
2022-08-10T08:56:26.726Z,22.19
2022-08-10T09:02:54.478Z,22.23
2022-08-10T09:09:22.472Z,22.21
2022-08-10T09:15:39.632Z,22.23
2022-08-10T09:21:59.032Z,22.23
2022-08-10T09:28:21.235Z,22.27
2022-08-10T09:36:22.102Z,22.33
2022-08-10T09:41:14.874Z,22.30
2022-08-10T09:47:58.824Z,22.33
2022-08-10T09:54:09.407Z,22.35
2022-08-10T10:00:15.987Z,22.39
2022-08-10T10:06:27.882Z,22.39
2022-08-10T10:12:43.680Z,22.40
2022-08-10T10:18:55.468Z,22.45
2022-08-10T10:25:21.012Z,22.44
2022-08-10T10:31:31.774Z,22.43
2022-08-10T10:38:00.651Z,22.42
2022-08-10T10:44:12.337Z,22.43
2022-08-10T10:50:24.050Z,22.49
2022-08-10T10:56:44.865Z,22.49
2022-08-10T11:03:05.154Z,22.50
2022-08-10T11:10:03.877Z,22.54
2022-08-10T11:15:47.889Z,22.57
2022-08-10T11:22:02.802Z,22.59
2022-08-10T11:28:14.034Z,22.63
2022-08-10T11:34:48.316Z,22.67
2022-08-10T11:40:54.646Z,22.69
2022-08-10T11:47:06.162Z,22.71
2022-08-10T11:53:16.950Z,22.77
2022-08-10T11:59:42.145Z,22.82
2022-08-10T12:05:54.016Z,22.89
2022-08-10T12:12:00.318Z,22.96
2022-08-10T12:18:12.344Z,23.01
2022-08-10T12:24:25.053Z,23.10
2022-08-10T12:30:37.568Z,23.16
2022-08-10T12:36:44.047Z,23.28
2022-08-10T12:44:04.777Z,23.39
2022-08-10T12:49:33.489Z,23.49
2022-08-10T12:55:40.288Z,23.60
2022-08-10T13:02:07.727Z,23.70
2022-08-10T13:08:28.938Z,23.82
2022-08-10T13:14:36.817Z,24.10
2022-08-10T13:20:42.933Z,24.10
2022-08-10T13:27:25.234Z,24.29
2022-08-10T13:34:39.727Z,24.55
2022-08-10T13:39:58.886Z,24.50
2022-08-10T13:46:07.814Z,24.60
2022-08-10T13:52:29.470Z,24.70
2022-08-10T13:58:38.265Z,24.74
2022-08-10T14:04:46.137Z,24.84
2022-08-10T14:11:09.354Z,25.21
2022-08-10T14:17:22.138Z,25.37
2022-08-10T14:23:25.845Z,25.16
2022-08-10T14:29:31.194Z,25.16
2022-08-10T14:36:20.717Z,25.20
2022-08-10T14:42:25.202Z,25.64
2022-08-10T14:48:34.940Z,25.66
2022-08-10T14:54:46.667Z,-145.26
2022-08-10T15:00:52.510Z,-145.26
2022-08-10T15:07:00.996Z,-145.26
2022-08-10T15:13:33.712Z,-145.26
2022-08-10T15:20:02.909Z,-145.26
2022-08-10T15:26:10.921Z,-145.26
2022-08-10T15:32:31.001Z,-145.26
2022-08-10T15:38:42.697Z,-145.26
2022-08-10T15:44:49.957Z,-145.26
2022-08-10T15:51:05.917Z,-145.26
2022-08-10T15:57:14.402Z,-145.26
2022-08-10T16:03:24.366Z,-145.26
2022-08-10T16:10:23.039Z,-145.26
2022-08-10T16:15:59.918Z,-145.26
2022-08-10T16:22:35.652Z,-145.26
2022-08-10T16:28:36.949Z,-145.26
2022-08-10T16:34:42.630Z,-145.26
2022-08-10T16:40:50.009Z,-145.26
2022-08-10T16:46:56.227Z,-145.26
2022-08-10T16:53:03.235Z,-145.26
2022-08-10T16:59:09.452Z,-145.26
2022-08-10T17:06:07.375Z,-145.26
2022-08-10T17:11:52.741Z,-145.26
2022-08-10T17:18:00.178Z,-145.26
2022-08-10T17:24:07.578Z,-145.26
2022-08-10T17:30:33.980Z,-145.26
2022-08-10T17:36:42.625Z,-145.26
2022-08-10T17:42:49.645Z,-145.26
2022-08-10T17:48:54.761Z,-145.26
2022-08-10T17:55:00.883Z,-145.26
2022-08-10T18:01:38.317Z,-145.26
2022-08-10T18:07:36.029Z,-145.26
2022-08-10T18:13:55.474Z,-145.26
2022-08-10T18:20:04.239Z,-145.26
2022-08-10T18:26:12.021Z,-145.26
2022-08-10T18:32:17.609Z,-145.26
2022-08-10T18:38:23.376Z,-145.26
2022-08-10T18:44:35.021Z,-145.26
2022-08-10T18:50:45.198Z,-145.26
2022-08-10T18:56:57.477Z,-145.26
2022-08-10T19:03:14.041Z,-145.26
2022-08-10T19:09:45.904Z,-145.26
2022-08-10T19:16:02.387Z,-145.26
2022-08-10T19:22:10.248Z,-145.26
2022-08-10T19:28:23.681Z,-145.26
2022-08-10T19:34:51.409Z,-145.26
2022-08-10T19:41:09.493Z,25.66
2022-08-10T19:47:23.337Z,23.34
2022-08-10T20:00:16.935Z,23.19
2022-08-10T20:06:48.336Z,23.17
2022-08-10T20:13:03.750Z,23.04
2022-08-10T20:19:13.784Z,22.91
2022-08-10T20:25:22.025Z,22.83
2022-08-10T20:31:42.241Z,22.66
2022-08-10T20:38:04.021Z,22.62
2022-08-10T20:44:16.687Z,22.65
2022-08-10T20:50:29.262Z,22.66
2022-08-10T20:56:43.727Z,22.66
2022-08-10T21:03:20.757Z,22.53
2022-08-10T21:09:50.695Z,22.44
2022-08-10T21:16:04.685Z,22.39
2022-08-10T21:22:16.025Z,22.36
2022-08-10T21:28:50.080Z,22.30
2022-08-10T21:35:10.452Z,22.20
2022-08-10T21:41:58.808Z,22.16
2022-08-10T21:48:30.303Z,21.99
2022-08-10T21:55:00.593Z,21.94
2022-08-10T22:01:39.299Z,21.94
2022-08-10T22:08:01.087Z,21.91
2022-08-10T22:14:25.633Z,21.76
2022-08-10T22:20:50.426Z,21.66
2022-08-10T22:27:46.514Z,21.56
2022-08-10T22:34:31.804Z,21.37
2022-08-10T22:40:52.920Z,21.25
2022-08-10T22:47:16.167Z,21.38
2022-08-10T22:53:26.779Z,21.36
2022-08-10T22:59:32.952Z,21.33
2022-08-10T23:05:39.762Z,21.18
2022-08-10T23:11:46.217Z,21.05
2022-08-10T23:18:11.340Z,20.88
2022-08-10T23:24:16.439Z,20.86
2022-08-10T23:30:21.674Z,20.77
2022-08-10T23:36:35.669Z,20.71
2022-08-10T23:42:41.696Z,20.71
2022-08-10T23:48:48.287Z,20.62
2022-08-10T23:54:57.335Z,20.68
